createdAt,value
2023-03-03T00:00:09.353Z,98927.38
2023-03-03T00:02:35.870Z,98932.88
2023-03-03T00:05:02.386Z,98921.66
2023-03-03T00:07:28.856Z,98917.03
2023-03-03T00:09:55.367Z,98918.38
2023-03-03T00:12:27.008Z,98919.72
2023-03-03T00:14:53.569Z,98917.53
2023-03-03T00:17:27.477Z,98912.34
2023-03-03T00:19:54.023Z,98920.50
2023-03-03T00:22:31.456Z,98920.28
2023-03-03T00:25:31.038Z,98925.19
2023-03-03T00:28:08.754Z,98909.03
2023-03-03T00:30:35.250Z,98910.97
2023-03-03T00:33:01.781Z,98912.03
2023-03-03T00:35:35.774Z,98910.97
2023-03-03T00:38:10.778Z,98910.13
2023-03-03T00:40:38.455Z,98909.00
2023-03-03T00:43:23.781Z,98893.47
2023-03-03T00:45:56.560Z,98896.50
2023-03-03T00:48:29.982Z,98897.31
2023-03-03T00:50:57.827Z,98902.75
2023-03-03T00:53:25.524Z,98898.41
2023-03-03T00:55:52.335Z,98904.13
2023-03-03T00:58:21.658Z,98898.97
2023-03-03T01:00:52.482Z,98891.63
2023-03-03T01:03:21.557Z,98896.22
2023-03-03T01:05:49.127Z,98904.16
2023-03-03T01:08:15.625Z,98908.22
2023-03-03T01:10:50.861Z,98902.47
2023-03-03T01:13:17.650Z,98906.84
2023-03-03T01:15:44.176Z,98906.28
2023-03-03T01:18:11.493Z,98898.94
2023-03-03T01:20:37.988Z,98892.09
2023-03-03T01:23:04.446Z,98893.19
2023-03-03T01:25:31.236Z,98903.00
2023-03-03T01:27:57.800Z,98901.13
2023-03-03T01:30:24.383Z,98900.81
2023-03-03T01:32:50.981Z,98909.56
2023-03-03T01:35:17.553Z,98906.81
2023-03-03T01:37:44.015Z,98899.13
2023-03-03T01:40:19.545Z,98893.66
2023-03-03T01:42:46.278Z,98893.38
2023-03-03T01:45:20.261Z,98897.22
2023-03-03T01:47:58.728Z,98905.41
2023-03-03T01:50:35.964Z,98913.53
2023-03-03T01:53:02.744Z,98914.63
2023-03-03T01:55:32.323Z,98917.06
2023-03-03T01:58:01.697Z,98922.53
2023-03-03T02:00:28.189Z,98921.19
2023-03-03T02:02:54.682Z,98922.22
2023-03-03T02:05:21.198Z,98927.94
2023-03-03T02:07:47.662Z,98932.84
2023-03-03T02:10:18.312Z,98940.16
2023-03-03T02:12:55.537Z,98929.22
2023-03-03T02:15:23.857Z,98929.78
2023-03-03T02:17:52.511Z,98926.75
2023-03-03T02:20:46.661Z,98923.22
2023-03-03T02:23:36.458Z,98933.03
2023-03-03T02:26:22.740Z,98929.47
2023-03-03T02:28:49.324Z,98926.47
2023-03-03T02:31:18.451Z,98932.78
2023-03-03T02:33:46.503Z,98922.94
2023-03-03T02:36:21.022Z,98929.81
2023-03-03T02:39:03.851Z,98935.19
2023-03-03T02:41:42.986Z,98928.31
2023-03-03T02:44:11.417Z,98919.31
2023-03-03T02:46:40.646Z,98924.81
2023-03-03T02:49:08.158Z,98931.91
2023-03-03T02:51:34.862Z,98937.88
2023-03-03T02:54:01.343Z,98927.50
2023-03-03T02:56:28.005Z,98931.56
2023-03-03T02:58:54.545Z,98930.47
2023-03-03T03:01:21.190Z,98941.69
2023-03-03T03:03:48.254Z,98932.84
2023-03-03T03:06:14.773Z,98935.31
2023-03-03T03:08:41.248Z,98944.78
2023-03-03T03:11:08.015Z,98943.19
2023-03-03T03:13:34.770Z,98951.97
2023-03-03T03:16:01.258Z,98948.44
2023-03-03T03:18:28.128Z,98940.78
2023-03-03T03:20:54.605Z,98940.50
2023-03-03T03:23:22.027Z,98926.88
2023-03-03T03:25:48.769Z,98930.69
2023-03-03T03:28:16.246Z,98930.06
2023-03-03T03:30:44.158Z,98929.34
2023-03-03T03:33:10.626Z,98922.88
2023-03-03T03:35:37.188Z,98930.94
2023-03-03T03:38:04.278Z,98936.97
2023-03-03T03:40:30.765Z,98942.47
2023-03-03T03:42:57.245Z,98950.88
2023-03-03T03:45:23.886Z,98947.28
2023-03-03T03:47:50.347Z,98944.88
2023-03-03T03:50:17.403Z,98951.09
2023-03-03T03:52:43.888Z,98950.81
2023-03-03T03:55:13.882Z,98955.47
2023-03-03T03:57:40.487Z,98962.41
2023-03-03T04:00:08.640Z,98947.75
2023-03-03T04:02:35.657Z,98956.19
2023-03-03T04:05:02.320Z,98948.06
2023-03-03T04:07:28.835Z,98946.09
2023-03-03T04:09:55.344Z,98948.84
2023-03-03T04:12:21.860Z,98959.41
2023-03-03T04:14:48.377Z,98955.50
2023-03-03T04:17:21.977Z,98955.84
2023-03-03T04:19:48.466Z,98947.97
2023-03-03T04:22:15.173Z,98943.66
2023-03-03T04:24:41.664Z,98938.06
2023-03-03T04:27:09.445Z,98938.19
2023-03-03T04:29:36.152Z,98938.44
2023-03-03T04:32:02.715Z,98941.75
2023-03-03T04:34:29.217Z,98936.56
2023-03-03T04:36:56.012Z,98943.91
2023-03-03T04:39:22.488Z,98939.59
2023-03-03T04:41:49.023Z,98935.16
2023-03-03T04:44:15.512Z,98943.06
2023-03-03T04:46:42.015Z,98942.81
2023-03-03T04:49:10.797Z,98943.00
2023-03-03T04:51:38.443Z,98938.06
2023-03-03T04:54:04.930Z,98954.16
2023-03-03T04:56:31.647Z,98949.53
2023-03-03T04:58:58.423Z,98949.59
2023-03-03T05:01:25.001Z,98958.56
2023-03-03T05:03:51.557Z,98960.69
2023-03-03T05:06:18.898Z,98965.25
2023-03-03T05:08:45.932Z,98972.25
2023-03-03T05:11:12.870Z,98978.09
2023-03-03T05:13:39.390Z,98972.84
2023-03-03T05:16:06.208Z,98984.94
2023-03-03T05:18:32.729Z,98982.47
2023-03-03T05:20:59.448Z,98976.41
2023-03-03T05:23:26.047Z,98983.53
2023-03-03T05:25:52.583Z,98991.16
2023-03-03T05:28:19.047Z,98992.19
2023-03-03T05:30:45.980Z,98993.03
2023-03-03T05:33:16.246Z,98990.56
2023-03-03T05:35:43.094Z,98999.25
2023-03-03T05:38:09.688Z,98994.28
2023-03-03T05:40:36.591Z,99000.63
2023-03-03T05:43:03.395Z,98989.53
2023-03-03T05:45:29.922Z,98999.94
2023-03-03T05:47:56.380Z,98995.88
2023-03-03T05:50:23.003Z,98990.94
2023-03-03T05:52:50.408Z,98983.59
2023-03-03T05:55:17.028Z,98988.78
2023-03-03T05:57:43.680Z,98997.19
2023-03-03T06:00:10.669Z,98988.97
2023-03-03T06:02:37.550Z,98993.25
2023-03-03T06:05:04.399Z,98975.34
2023-03-03T06:07:30.914Z,98985.41
2023-03-03T06:09:57.485Z,98987.47
2023-03-03T06:12:23.956Z,98990.19
2023-03-03T06:14:50.420Z,98990.84
2023-03-03T06:17:16.931Z,98983.09
2023-03-03T06:19:43.459Z,98991.78
2023-03-03T06:22:10.222Z,98997.53
2023-03-03T06:24:36.755Z,98994.59
2023-03-03T06:27:03.274Z,99004.50
2023-03-03T06:29:29.828Z,99001.31
2023-03-03T06:31:56.497Z,99000.50
2023-03-03T06:34:23.107Z,99004.03
2023-03-03T06:36:49.648Z,99010.94
2023-03-03T06:39:16.409Z,99012.78
2023-03-03T06:41:42.904Z,99005.44
2023-03-03T06:44:09.370Z,99019.13
2023-03-03T06:46:35.874Z,99024.63
2023-03-03T06:49:03.158Z,99021.03
2023-03-03T06:51:32.641Z,99029.56
2023-03-03T06:54:01.438Z,99024.63
2023-03-03T06:56:27.960Z,99030.19
2023-03-03T06:58:58.436Z,99037.28
2023-03-03T07:01:25.003Z,99035.41
2023-03-03T07:03:51.559Z,99035.91
2023-03-03T07:06:21.768Z,99042.56
2023-03-03T07:08:48.357Z,99051.94
2023-03-03T07:11:17.433Z,99056.25
2023-03-03T07:13:48.681Z,99061.13
2023-03-03T07:16:15.769Z,99058.59
2023-03-03T07:18:55.223Z,99065.06
2023-03-03T07:21:32.168Z,99055.88
2023-03-03T07:23:58.744Z,99060.72
2023-03-03T07:26:30.629Z,99065.78
2023-03-03T07:29:26.591Z,99058.03
2023-03-03T07:31:54.237Z,99059.16
2023-03-03T07:34:22.538Z,99049.28
2023-03-03T07:36:59.722Z,99062.63
2023-03-03T07:39:34.513Z,99067.53
2023-03-03T07:42:22.417Z,99065.59
2023-03-03T07:44:50.924Z,99063.22
2023-03-03T07:47:30.114Z,99061.13
2023-03-03T07:50:18.691Z,99059.78
2023-03-03T07:53:22.460Z,99058.81
2023-03-03T07:55:49.784Z,99059.53
2023-03-03T07:58:21.057Z,99059.28
2023-03-03T08:01:25.027Z,99067.22
2023-03-03T08:03:51.782Z,99077.22
2023-03-03T08:06:36.703Z,99073.03
2023-03-03T08:09:24.823Z,99070.88
2023-03-03T08:12:09.579Z,99071.19
2023-03-03T08:14:37.179Z,99064.28
2023-03-03T08:17:09.752Z,99068.72
2023-03-03T08:19:36.449Z,99061.16
2023-03-03T08:22:09.348Z,99064.34
2023-03-03T08:24:38.383Z,99060.03
2023-03-03T08:27:05.014Z,99055.19
2023-03-03T08:29:31.506Z,99050.72
2023-03-03T08:31:58.060Z,99054.59
2023-03-03T08:34:24.733Z,99056.75
2023-03-03T08:36:51.222Z,99041.03
2023-03-03T08:39:17.762Z,99045.53
2023-03-03T08:41:46.111Z,99042.25
2023-03-03T08:44:12.681Z,99039.84
2023-03-03T08:46:39.263Z,99045.44
2023-03-03T08:49:05.758Z,99044.16
2023-03-03T08:51:34.334Z,99038.28
2023-03-03T08:54:01.073Z,99039.41
2023-03-03T08:56:27.595Z,99041.69
2023-03-03T08:59:02.121Z,99038.19
2023-03-03T09:01:31.120Z,99041.22
2023-03-03T09:03:57.810Z,99045.78
2023-03-03T09:06:24.299Z,99047.00
2023-03-03T09:08:50.945Z,99036.53
2023-03-03T09:11:27.806Z,99031.72
2023-03-03T09:13:59.329Z,99026.59
2023-03-03T09:16:27.006Z,99024.94
2023-03-03T09:18:53.504Z,99034.81
2023-03-03T09:21:32.566Z,99032.84
2023-03-03T09:23:59.579Z,99033.22
2023-03-03T09:26:30.938Z,99018.56
2023-03-03T09:29:15.629Z,99029.00
2023-03-03T09:31:45.744Z,99030.09
2023-03-03T09:34:18.081Z,99021.41
2023-03-03T09:36:44.615Z,99019.75
2023-03-03T09:39:20.908Z,99009.38
2023-03-03T09:41:47.355Z,99010.66
2023-03-03T09:44:18.101Z,99010.66
2023-03-03T09:47:09.774Z,99012.84
2023-03-03T09:49:47.797Z,99010.41
2023-03-03T09:52:52.103Z,99015.69
2023-03-03T09:55:41.311Z,99009.97
2023-03-03T09:58:36.023Z,99018.47
2023-03-03T10:01:12.915Z,99016.03
2023-03-03T10:03:55.185Z,99011.63
2023-03-03T10:06:45.690Z,99013.56
2023-03-03T10:09:39.563Z,99017.13
2023-03-03T10:12:54.272Z,99007.56
2023-03-03T10:15:54.524Z,99009.19
2023-03-03T10:18:36.525Z,99012.22
2023-03-03T10:21:22.269Z,99014.66
2023-03-03T10:23:59.079Z,99016.84
2023-03-03T10:27:09.919Z,99019.31
2023-03-03T10:30:04.668Z,99019.84
2023-03-03T10:32:42.391Z,99026.41
2023-03-03T10:35:38.788Z,99020.41
2023-03-03T10:38:30.004Z,99018.75
2023-03-03T10:41:04.272Z,99026.84
2023-03-03T10:43:39.850Z,99019.34
2023-03-03T10:46:09.862Z,99021.75
2023-03-03T10:49:05.648Z,99013.94
2023-03-03T10:51:50.874Z,99025.81
2023-03-03T10:54:30.409Z,99018.47
2023-03-03T10:57:26.533Z,99009.56
2023-03-03T11:00:25.209Z,99013.19
2023-03-03T11:03:29.279Z,99016.53
2023-03-03T11:06:00.155Z,99017.34
2023-03-03T11:08:39.856Z,99012.97
2023-03-03T11:11:28.484Z,99007.50
2023-03-03T11:14:01.200Z,99010.78
2023-03-03T11:16:54.434Z,99014.59
2023-03-03T11:19:24.418Z,99005.56
2023-03-03T11:22:04.226Z,99014.06
2023-03-03T11:24:50.699Z,99019.28
2023-03-03T11:27:29.161Z,99012.97
2023-03-03T11:30:09.099Z,99018.66
2023-03-03T11:32:42.174Z,99004.09
2023-03-03T11:35:40.803Z,99009.09
2023-03-03T11:38:19.544Z,99002.19
2023-03-03T11:40:57.493Z,99004.31
2023-03-03T11:43:37.001Z,99005.19
2023-03-03T11:46:05.535Z,99005.94
2023-03-03T11:48:43.053Z,99002.66
2023-03-03T11:51:48.443Z,99006.16
2023-03-03T11:54:28.941Z,98998.28
2023-03-03T11:57:27.674Z,98997.69
2023-03-03T12:00:09.478Z,98998.41
2023-03-03T12:02:45.964Z,99004.16
2023-03-03T12:05:27.326Z,98990.63
2023-03-03T12:08:38.457Z,98987.44
2023-03-03T12:11:36.382Z,98994.25
2023-03-03T12:14:18.179Z,98987.66
2023-03-03T12:17:01.261Z,98989.69
2023-03-03T12:19:46.096Z,98982.19
2023-03-03T12:22:34.406Z,98986.72
2023-03-03T12:25:22.993Z,98983.00
2023-03-03T12:28:05.642Z,98979.16
2023-03-03T12:30:41.759Z,98970.47
2023-03-03T12:33:30.570Z,98968.16
2023-03-03T12:36:34.755Z,98960.00
2023-03-03T12:39:05.985Z,98952.19
2023-03-03T12:41:51.621Z,98961.09
2023-03-03T12:44:34.063Z,98954.28
2023-03-03T12:47:23.227Z,98962.31
2023-03-03T12:50:07.544Z,98950.34
2023-03-03T12:53:02.910Z,98959.59
2023-03-03T12:55:54.180Z,98954.41
2023-03-03T12:59:09.175Z,98946.91
2023-03-03T13:01:59.091Z,98949.13
2023-03-03T13:04:29.305Z,98946.03
2023-03-03T13:07:13.635Z,98939.75
2023-03-03T13:10:24.191Z,98940.28
2023-03-03T13:13:04.131Z,98925.09
2023-03-03T13:15:54.820Z,98930.84
2023-03-03T13:18:40.402Z,98934.41
2023-03-03T13:21:11.379Z,98926.50
2023-03-03T13:23:48.049Z,98926.38
2023-03-03T13:26:25.965Z,98926.72
2023-03-03T13:29:14.275Z,98938.41
2023-03-03T13:31:43.704Z,98934.22
2023-03-03T13:34:18.919Z,98932.44
2023-03-03T13:36:54.669Z,98923.06
2023-03-03T13:39:23.837Z,98923.94
2023-03-03T13:42:05.396Z,98923.47
2023-03-03T13:44:40.168Z,98918.38
2023-03-03T13:47:13.976Z,98921.56
2023-03-03T13:49:59.204Z,98912.47
2023-03-03T13:52:28.233Z,98915.91
2023-03-03T13:55:12.277Z,98919.03
2023-03-03T13:57:46.876Z,98925.41
2023-03-03T14:00:22.343Z,98920.72
2023-03-03T14:03:04.075Z,98914.97
2023-03-03T14:05:52.874Z,98909.00
2023-03-03T14:08:48.441Z,98911.69
2023-03-03T14:11:36.165Z,98914.16
2023-03-03T14:14:28.013Z,98913.47
2023-03-03T14:17:21.832Z,98900.97
2023-03-03T14:20:02.268Z,98902.38
2023-03-03T14:22:52.470Z,98903.34
2023-03-03T14:25:19.387Z,98898.91
2023-03-03T14:27:48.845Z,98898.00
2023-03-03T14:30:38.590Z,98890.78
2023-03-03T14:33:07.979Z,98890.50
2023-03-03T14:35:35.654Z,98887.81
2023-03-03T14:38:03.647Z,98893.47
2023-03-03T14:40:32.500Z,98881.25
2023-03-03T14:43:02.576Z,98880.94
2023-03-03T14:45:34.264Z,98881.97
2023-03-03T14:48:00.983Z,98884.63
2023-03-03T14:50:40.728Z,98874.56
2023-03-03T14:53:11.693Z,98871.09
2023-03-03T14:55:39.307Z,98871.81
2023-03-03T14:58:12.925Z,98879.03
2023-03-03T15:00:39.494Z,98870.69
2023-03-03T15:03:26.556Z,98861.22
2023-03-03T15:05:57.370Z,98859.75
2023-03-03T15:08:35.241Z,98856.47
2023-03-03T15:11:18.281Z,98853.56
2023-03-03T15:13:44.995Z,98853.09
2023-03-03T15:16:21.923Z,98849.91
2023-03-03T15:19:00.398Z,98853.19
2023-03-03T15:21:33.497Z,98848.81
2023-03-03T15:24:17.228Z,98852.41
2023-03-03T15:26:59.959Z,98847.41
2023-03-03T15:29:30.729Z,98847.69
2023-03-03T15:32:02.935Z,98843.13
2023-03-03T15:34:49.108Z,98841.75
2023-03-03T15:37:30.368Z,98846.72
2023-03-03T15:40:34.602Z,98845.34
2023-03-03T15:43:35.232Z,98843.19
2023-03-03T15:46:18.470Z,98841.00
2023-03-03T15:49:06.945Z,98841.50
2023-03-03T15:52:03.083Z,98848.41
2023-03-03T15:54:40.149Z,98845.47
2023-03-03T15:57:17.833Z,98843.03
2023-03-03T16:00:03.874Z,98839.19
2023-03-03T16:02:53.025Z,98844.38
2023-03-03T16:05:25.879Z,98846.00
2023-03-03T16:07:55.833Z,98850.91
2023-03-03T16:10:56.155Z,98849.88
2023-03-03T16:13:31.259Z,98844.97
2023-03-03T16:15:59.606Z,98850.78
2023-03-03T16:18:41.215Z,98846.41
2023-03-03T16:21:17.845Z,98852.16
2023-03-03T16:23:51.421Z,98846.81
2023-03-03T16:26:38.679Z,98846.56
2023-03-03T16:29:59.604Z,98854.56
2023-03-03T16:32:58.718Z,98845.28
2023-03-03T16:35:28.164Z,98862.28
2023-03-03T16:38:02.402Z,98858.47
2023-03-03T16:40:52.264Z,98863.69
2023-03-03T16:43:20.432Z,98865.31
2023-03-03T16:45:47.390Z,98876.84
2023-03-03T16:48:27.032Z,98870.50
2023-03-03T16:51:04.918Z,98874.88
2023-03-03T16:53:46.796Z,98873.06
2023-03-03T16:56:24.138Z,98876.59
2023-03-03T16:59:05.470Z,98871.38
2023-03-03T17:01:40.896Z,98876.91
2023-03-03T17:04:18.242Z,98862.66
2023-03-03T17:06:55.196Z,98867.34
2023-03-03T17:09:42.869Z,98870.63
2023-03-03T17:12:35.567Z,98871.75
2023-03-03T17:15:10.968Z,98864.38
2023-03-03T17:17:52.399Z,98880.47
2023-03-03T17:20:34.069Z,98873.66
2023-03-03T17:23:15.489Z,98867.41
2023-03-03T17:26:05.955Z,98869.03
2023-03-03T17:28:47.569Z,98867.38
2023-03-03T17:31:54.835Z,98873.41
2023-03-03T17:34:40.654Z,98870.34
2023-03-03T17:37:36.120Z,98874.69
2023-03-03T17:40:40.176Z,98872.78
2023-03-03T17:43:15.718Z,98886.44
2023-03-03T17:45:43.599Z,98880.38
2023-03-03T17:48:31.632Z,98883.44
2023-03-03T17:51:05.191Z,98884.84
2023-03-03T17:53:56.556Z,98888.09
2023-03-03T17:56:42.872Z,98888.66
2023-03-03T17:59:15.576Z,98887.56
2023-03-03T18:01:48.054Z,98891.13
2023-03-03T18:04:29.625Z,98895.25
2023-03-03T18:06:58.803Z,98891.97
2023-03-03T18:09:35.735Z,98892.81
2023-03-03T18:12:36.392Z,98900.72
2023-03-03T18:15:06.708Z,98902.09
2023-03-03T18:17:52.144Z,98891.41
2023-03-03T18:20:51.769Z,98891.66
2023-03-03T18:23:46.116Z,98893.56
2023-03-03T18:26:48.856Z,98901.19
2023-03-03T18:29:19.279Z,98907.78
2023-03-03T18:31:48.925Z,98904.47
2023-03-03T18:34:21.486Z,98913.22
2023-03-03T18:36:53.181Z,98914.03
2023-03-03T18:39:55.755Z,98921.41
2023-03-03T18:42:23.466Z,98925.00
2023-03-03T18:44:50.325Z,98917.31
2023-03-03T18:47:17.900Z,98915.97
2023-03-03T18:49:47.544Z,98925.50
2023-03-03T18:52:17.777Z,98913.72
2023-03-03T18:54:44.244Z,98924.13
2023-03-03T18:57:17.831Z,98918.09
2023-03-03T18:59:58.720Z,98913.72
2023-03-03T19:02:42.315Z,98919.16
2023-03-03T19:05:19.333Z,98923.28
2023-03-03T19:07:51.314Z,98923.66
2023-03-03T19:10:21.326Z,98930.75
2023-03-03T19:12:51.827Z,98938.97
2023-03-03T19:15:43.221Z,98939.25
2023-03-03T19:18:23.656Z,98931.31
2023-03-03T19:21:06.540Z,98938.13
2023-03-03T19:24:01.694Z,98926.13
2023-03-03T19:26:32.143Z,98926.66
2023-03-03T19:29:11.862Z,98927.75
2023-03-03T19:32:03.418Z,98932.66
2023-03-03T19:34:51.448Z,98928.00
2023-03-03T19:37:52.081Z,98936.22
2023-03-03T19:40:42.792Z,98925.84
2023-03-03T19:43:32.073Z,98922.00
2023-03-03T19:46:20.117Z,98928.56
2023-03-03T19:49:06.074Z,98924.16
2023-03-03T19:51:40.199Z,98930.44
2023-03-03T19:54:15.880Z,98926.06
2023-03-03T19:56:49.989Z,98921.19
2023-03-03T19:59:27.305Z,98925.25
2023-03-03T20:02:18.609Z,98923.84
2023-03-03T20:05:16.525Z,98926.00
2023-03-03T20:07:42.869Z,98921.31
2023-03-03T20:10:33.616Z,98911.50
2023-03-03T20:13:21.807Z,98914.75
2023-03-03T20:15:56.987Z,98917.53
2023-03-03T20:18:37.808Z,98912.34
2023-03-03T20:21:08.439Z,98907.69
2023-03-03T20:23:51.699Z,98910.72
2023-03-03T20:26:27.173Z,98904.16
2023-03-03T20:29:20.434Z,98904.44
2023-03-03T20:32:33.763Z,98906.06
2023-03-03T20:35:38.791Z,98907.97
2023-03-03T20:38:45.025Z,98911.03
2023-03-03T20:42:08.895Z,98914.03
2023-03-03T20:45:10.878Z,98917.03
2023-03-03T20:47:45.390Z,98915.41
2023-03-03T20:50:15.730Z,98907.19
2023-03-03T20:53:09.012Z,98913.19
2023-03-03T20:55:42.376Z,98907.44
2023-03-03T20:58:23.419Z,98898.41
2023-03-03T21:00:58.218Z,98899.78
2023-03-03T21:03:38.559Z,98904.41
2023-03-03T21:06:15.405Z,98901.94
2023-03-03T21:08:42.969Z,98893.19
2023-03-03T21:11:09.516Z,98897.84
2023-03-03T21:13:40.810Z,98900.56
2023-03-03T21:16:25.561Z,98896.22
2023-03-03T21:19:13.013Z,98886.63
2023-03-03T21:21:40.799Z,98889.66
2023-03-03T21:24:08.023Z,98888.56
2023-03-03T21:26:43.848Z,98894.88
2023-03-03T21:29:19.320Z,98895.16
2023-03-03T21:31:50.923Z,98892.16
2023-03-03T21:34:19.169Z,98890.41
2023-03-03T21:36:46.997Z,98888.56
2023-03-03T21:39:21.768Z,98890.47
2023-03-03T21:42:02.638Z,98890.75
2023-03-03T21:44:46.608Z,98886.09
2023-03-03T21:47:14.896Z,98887.72
2023-03-03T21:49:45.615Z,98881.66
2023-03-03T21:52:12.612Z,98880.63
2023-03-03T21:54:39.189Z,98881.72
2023-03-03T21:57:05.654Z,98869.13
2023-03-03T21:59:32.197Z,98883.00
2023-03-03T22:01:58.683Z,98876.16
2023-03-03T22:04:25.232Z,98866.31
2023-03-03T22:06:52.792Z,98866.50
2023-03-03T22:09:19.415Z,98869.38
2023-03-03T22:11:45.893Z,98852.31
2023-03-03T22:14:12.358Z,98858.16
2023-03-03T22:16:39.501Z,98851.88
2023-03-03T22:19:06.032Z,98851.00
2023-03-03T22:21:32.787Z,98851.06
2023-03-03T22:23:59.286Z,98850.22
2023-03-03T22:26:25.747Z,98852.94
2023-03-03T22:28:52.267Z,98844.47
2023-03-03T22:31:20.017Z,98846.72
2023-03-03T22:33:47.427Z,98850.50
2023-03-03T22:36:13.973Z,98847.13
2023-03-03T22:38:40.749Z,98853.00
2023-03-03T22:41:07.323Z,98848.06
2023-03-03T22:43:33.817Z,98846.19
2023-03-03T22:46:00.349Z,98842.00
2023-03-03T22:48:27.334Z,98838.22
2023-03-03T22:50:53.844Z,98836.53
2023-03-03T22:53:20.562Z,98830.81
2023-03-03T22:55:47.021Z,98832.84
2023-03-03T22:58:13.798Z,98829.75
2023-03-03T23:00:41.638Z,98837.28
2023-03-03T23:03:09.222Z,98833.13
2023-03-03T23:05:36.131Z,98838.56
2023-03-03T23:08:07.116Z,98823.72
2023-03-03T23:10:33.582Z,98821.34
2023-03-03T23:13:00.089Z,98825.91
2023-03-03T23:15:26.586Z,98818.78
2023-03-03T23:17:53.101Z,98829.56
2023-03-03T23:20:24.633Z,98835.69
2023-03-03T23:22:51.509Z,98821.84
2023-03-03T23:25:18.258Z,98821.81
2023-03-03T23:27:44.742Z,98826.00
2023-03-03T23:30:12.681Z,98818.22
2023-03-03T23:32:39.224Z,98816.53
2023-03-03T23:35:06.126Z,98804.81
2023-03-03T23:37:32.937Z,98809.47
2023-03-03T23:40:00.057Z,98811.59
2023-03-03T23:42:27.830Z,98809.47
2023-03-03T23:44:54.356Z,98804.00
2023-03-03T23:47:20.809Z,98800.56
2023-03-03T23:49:47.267Z,98813.03
2023-03-03T23:52:13.998Z,98805.38
2023-03-03T23:54:40.465Z,98804.50
2023-03-03T23:57:08.063Z,98807.63
2023-03-03T23:59:35.038Z,98811.91
